Time;durP1;ratioP1;P1;durP2;ratioP2;P2;SDS_P1;SDS_P2;PMS_P1;PMS_P2;Temp;Humidity;BMP_temperature;BMP_pressure;BME280_temperature;BME280_humidity;BME280_pressure;Samples;Min_cycle;Max_cycle;Signal;HPM_P1;HPM_P2
2023/02/14 00:00:41;;;;;;;31.88;18.42;;;;;;;3.16;87.90;100312.75;5059742;28;20461;-66
2023/02/14 00:03:06;;;;;;;33.97;19.42;;;;;;;3.02;88.92;100303.81;5059803;28;20537;-66
2023/02/14 00:05:32;;;;;;;32.42;19.48;;;;;;;2.74;88.16;100251.75;5076075;28;20119;-67
2023/02/14 00:07:57;;;;;;;35.90;18.98;;;;;;;2.99;89.06;100303.09;5076427;28;20041;-66
2023/02/14 00:10:23;;;;;;;36.55;18.65;;;;;;;3.05;88.68;100308.88;5059806;28;20043;-67
2023/02/14 00:12:48;;;;;;;34.00;18.95;;;;;;;3.18;88.50;100311.84;5094841;28;20421;-67
2023/02/14 00:15:23;;;;;;;31.30;18.48;;;;;;;3.04;88.38;100303.78;5059532;28;20024;-67
2023/02/14 00:17:54;;;;;;;34.15;18.73;;;;;;;3.08;89.19;100302.78;5094265;28;20028;-67
2023/02/14 00:20:22;;;;;;;33.85;19.10;;;;;;;3.16;89.10;100298.19;5059480;28;20023;-67
2023/02/14 00:22:48;;;;;;;32.88;19.13;;;;;;;3.18;89.64;100303.28;5075938;28;20036;-66
2023/02/14 00:25:14;;;;;;;33.55;19.10;;;;;;;3.18;89.26;100300.72;5075814;28;20114;-66
2023/02/14 00:27:39;;;;;;;31.63;18.58;;;;;;;3.09;89.01;100296.75;5075828;28;20093;-67
2023/02/14 00:30:07;;;;;;;32.15;19.27;;;;;;;3.07;88.96;100293.41;5094032;28;20032;-66
2023/02/14 00:32:32;;;;;;;28.58;18.27;;;;;;;2.77;89.83;100282.47;5059135;28;20391;-67
2023/02/14 00:34:58;;;;;;;32.28;18.92;;;;;;;2.86;89.80;100297.56;5075850;28;20036;-67
2023/02/14 00:37:24;;;;;;;33.85;18.73;;;;;;;2.84;89.82;100286.50;5059193;28;20093;-67
2023/02/14 00:39:49;;;;;;;30.55;18.45;;;;;;;2.96;88.77;100292.97;5059083;28;20020;-67
2023/02/14 00:42:15;;;;;;;31.35;17.98;;;;;;;2.91;89.10;100290.53;5075380;28;20028;-67
2023/02/14 00:44:41;;;;;;;33.65;19.00;;;;;;;2.76;89.85;100286.78;5075517;28;20059;-67
2023/02/14 00:47:06;;;;;;;32.35;18.60;;;;;;;2.66;89.84;100286.25;5058962;28;20137;-67
2023/02/14 00:49:32;;;;;;;34.08;18.70;;;;;;;2.64;89.51;100280.31;5075349;28;20187;-67
2023/02/14 00:51:57;;;;;;;33.13;18.73;;;;;;;2.74;89.24;100290.28;5075638;28;20457;-67
2023/02/14 00:54:23;;;;;;;30.77;18.40;;;;;;;2.65;89.04;100274.31;5075233;28;20040;-66
2023/02/14 00:56:48;;;;;;;30.63;18.40;;;;;;;2.74;89.41;100282.56;5093271;28;20036;-67
2023/02/14 00:59:14;;;;;;;30.25;18.35;;;;;;;2.68;89.87;100283.63;5058358;28;20123;-67
2023/02/14 01:01:39;;;;;;;30.25;18.52;;;;;;;2.57;89.29;100283.16;5093024;28;20085;-67
2023/02/14 01:04:06;;;;;;;28.42;18.20;;;;;;;2.64;89.33;100271.78;5075012;28;20036;-66
2023/02/14 01:06:31;;;;;;;28.88;17.40;;;;;;;2.60;89.49;100270.22;5058586;28;20028;-67
2023/02/14 01:08:57;;;;;;;33.35;18.70;;;;;;;2.45;88.45;100261.34;5058437;28;20031;-66
2023/02/14 01:11:23;;;;;;;29.75;16.95;;;;;;;2.32;89.43;100273.75;5074776;28;20059;-67
2023/02/14 01:13:50;;;;;;;30.23;17.17;;;;;;;2.42;89.61;100261.44;5058462;28;20093;-67
2023/02/14 01:16:20;;;;;;;33.67;18.20;;;;;;;2.49;89.02;100260.34;5058231;28;20035;-67
2023/02/14 01:18:46;;;;;;;30.77;18.08;;;;;;;2.54;88.97;100267.84;5058092;28;20028;-67
2023/02/14 01:21:23;;;;;;;34.13;18.67;;;;;;;2.52;89.15;100267.94;5075027;28;20024;-67
2023/02/14 01:23:51;;;;;;;33.03;18.23;;;;;;;2.54;89.36;100265.28;5058206;28;20026;-67
2023/02/14 01:26:17;;;;;;;29.83;17.55;;;;;;;2.42;89.71;100261.44;5075265;28;20028;-67
2023/02/14 01:28:43;;;;;;;32.45;17.00;;;;;;;2.38;89.01;100268.41;5075118;28;20110;-67
2023/02/14 01:31:14;;;;;;;32.13;17.90;;;;;;;2.42;89.36;100264.81;5058050;28;20048;-67
2023/02/14 01:33:41;;;;;;;31.77;17.42;;;;;;;1.98;89.28;100203.00;5074774;28;20198;-67
2023/02/14 01:36:17;;;;;;;31.83;18.33;;;;;;;2.36;89.79;100270.19;5074675;28;20024;-67
2023/02/14 01:38:43;;;;;;;28.85;17.63;;;;;;;2.39;89.37;100272.66;5058073;28;20032;-67
2023/02/14 01:41:08;;;;;;;32.38;18.10;;;;;;;2.33;89.55;100262.56;5074933;28;20035;-67
2023/02/14 01:43:53;;;;;;;29.92;16.73;;;;;;;2.33;88.87;100266.88;5074472;28;20103;-67
2023/02/14 01:46:19;;;;;;;33.33;18.48;;;;;;;1.96;89.83;100219.34;5093109;28;20126;-67
2023/02/14 01:48:44;;;;;;;31.27;18.30;;;;;;;2.28;90.06;100277.28;5057985;28;20085;-67
2023/02/14 01:51:10;;;;;;;31.50;17.90;;;;;;;2.27;90.14;100267.94;5074577;28;20032;-66
2023/02/14 01:53:35;;;;;;;29.73;18.05;;;;;;;2.07;90.80;100268.59;5058016;28;20032;-67
2023/02/14 01:56:09;;;;;;;33.22;18.38;;;;;;;2.14;90.67;100264.09;5074245;28;20057;-66
2023/02/14 01:58:36;;;;;;;32.95;18.27;;;;;;;2.18;89.43;100263.09;5074249;28;20027;-67
2023/02/14 02:01:02;;;;;;;34.15;18.88;;;;;;;2.22;89.36;100252.66;5074234;28;20058;-68
2023/02/14 02:03:32;;;;;;;31.85;18.38;;;;;;;2.26;88.88;100253.41;5073624;28;20036;-67
2023/02/14 02:06:10;;;;;;;33.03;18.58;;;;;;;2.00;89.34;100214.06;5057209;28;20036;-67
2023/02/14 02:08:39;;;;;;;27.98;16.77;;;;;;;2.13;90.31;100247.00;5056813;28;20124;-67
2023/02/14 02:11:05;;;;;;;31.35;17.95;;;;;;;2.11;90.43;100250.47;5056737;28;20144;-67
2023/02/14 02:13:32;;;;;;;31.25;16.67;;;;;;;2.10;90.54;100243.66;5077338;28;20488;-67
2023/02/14 02:16:01;;;;;;;32.78;18.35;;;;;;;1.98;90.06;100245.81;5077695;28;20059;-67
2023/02/14 02:18:56;;;;;;;35.35;17.30;;;;;;;2.02;89.93;100232.81;5061114;28;20119;-67
2023/02/14 02:21:48;;;;;;;30.75;17.77;;;;;;;2.07;90.33;100243.75;5060534;28;20039;-67
2023/02/14 02:24:32;;;;;;;29.70;17.63;;;;;;;2.05;90.09;100240.41;5077803;28;20360;-67
2023/02/14 02:27:31;;;;;;;31.33;18.08;;;;;;;2.02;90.51;100240.50;5077408;28;20082;-67
2023/02/14 02:30:16;;;;;;;30.02;17.48;;;;;;;2.05;90.02;100242.97;5095942;28;20028;-67
2023/02/14 02:32:57;;;;;;;32.33;18.88;;;;;;;1.99;89.81;100234.63;5077505;28;20028;-67
2023/02/14 02:35:29;;;;;;;29.15;16.95;;;;;;;2.09;89.55;100238.56;5077598;28;20119;-68
2023/02/14 02:38:16;;;;;;;31.95;17.58;;;;;;;1.90;89.21;100210.97;5095802;28;20036;-67
2023/02/14 02:40:58;;;;;;;30.25;17.10;;;;;;;1.54;89.50;100169.41;5095477;28;20024;-67
2023/02/14 02:43:42;;;;;;;32.25;18.00;;;;;;;1.89;89.26;100234.94;5060422;28;20032;-67
2023/02/14 02:49:13;;;;;;;36.72;18.60;;;;;;;1.94;89.60;100229.66;5079802;28;20511;-67
2023/02/14 02:54:42;;;;;;;30.40;17.27;;;;;;;1.45;89.92;100149.19;5079456;28;20132;-66
2023/02/14 02:57:18;;;;;;;33.20;19.27;;;;;;;1.81;89.82;100206.16;5076734;28;20089;-67
2023/02/14 02:59:44;;;;;;;32.03;19.05;;;;;;;1.77;91.10;100212.28;5060083;28;20024;-67
2023/02/14 03:02:17;;;;;;;35.38;18.92;;;;;;;1.65;91.27;100205.78;5057184;28;20059;-66
2023/02/14 03:04:53;;;;;;;35.95;20.38;;;;;;;1.77;91.41;100214.84;5073655;28;20024;-67
2023/02/14 03:07:39;;;;;;;33.30;19.67;;;;;;;1.76;91.40;100214.88;5056697;28;20496;-67
2023/02/14 03:10:19;;;;;;;34.00;19.35;;;;;;;1.75;92.17;100215.75;5075042;28;20084;-67
2023/02/14 03:13:03;;;;;;;32.30;18.35;;;;;;;1.38;91.98;100153.66;5073229;28;20044;-67
2023/02/14 03:15:58;;;;;;;34.90;19.13;;;;;;;1.77;92.00;100203.72;5056483;28;20086;-67
2023/02/14 03:21:37;;;;;;;34.88;18.15;;;;;;;1.82;93.01;100204.41;5074196;28;20395;-67
2023/02/14 03:24:16;;;;;;;32.15;17.88;;;;;;;1.80;92.70;100198.50;5055779;28;20032;-67
2023/02/14 03:27:23;;;;;;;32.37;18.33;;;;;;;1.87;92.41;100199.97;5072902;28;20028;-66
2023/02/14 03:29:54;;;;;;;27.20;17.00;;;;;;;1.86;93.54;100190.59;5055129;28;20270;-67
2023/02/14 03:32:38;;;;;;;31.00;17.60;;;;;;;1.77;97.35;100186.63;5073990;28;20064;-67
2023/02/14 03:35:18;;;;;;;26.67;16.27;;;;;;;1.88;100.00;100170.84;5074082;28;20495;-67
2023/02/14 03:37:50;;;;;;;29.45;16.88;;;;;;;2.13;100.00;100180.28;5073769;28;20519;-67
2023/02/14 03:40:26;;;;;;;28.15;16.73;;;;;;;2.27;100.00;100163.53;5073805;28;20548;-66
2023/02/14 03:42:55;;;;;;;31.75;17.63;;;;;;;2.61;100.00;100169.16;5073937;28;20044;-67
2023/02/14 03:45:37;;;;;;;30.70;17.27;;;;;;;2.64;100.00;100159.63;5072930;28;20460;-66
2023/02/14 03:48:06;;;;;;;28.08;16.10;;;;;;;2.78;100.00;100160.84;5072401;28;20098;-67
2023/02/14 03:50:33;;;;;;;30.63;16.38;;;;;;;2.46;100.00;100080.69;5055811;28;20178;-67
2023/02/14 03:52:59;;;;;;;28.92;17.15;;;;;;;2.93;100.00;100162.84;5055957;28;20444;-67
2023/02/14 03:55:56;;;;;;;28.15;16.63;;;;;;;3.00;100.00;100160.88;5038914;28;20016;-67
2023/02/14 03:58:28;;;;;;;27.15;16.25;;;;;;;2.96;100.00;100160.16;5073682;28;20036;-67
2023/02/14 04:01:03;;;;;;;28.88;17.30;;;;;;;3.04;100.00;100157.28;5055857;28;20021;-67
2023/02/14 04:03:29;;;;;;;27.00;15.90;;;;;;;3.04;100.00;100163.25;5055192;28;20028;-67
2023/02/14 04:05:55;;;;;;;25.73;15.45;;;;;;;3.07;100.00;100158.00;5055365;28;20028;-67
2023/02/14 04:08:22;;;;;;;27.85;15.68;;;;;;;3.04;100.00;100157.28;5055357;28;20033;-67
2023/02/14 04:10:49;;;;;;;27.15;16.38;;;;;;;3.01;100.00;100153.13;5038437;28;20128;-66
2023/02/14 04:13:15;;;;;;;27.80;16.02;;;;;;;3.00;100.00;100145.47;5055439;28;20028;-66
2023/02/14 04:15:40;;;;;;;28.15;16.77;;;;;;;3.03;100.00;100137.63;5054844;28;20032;-66
2023/02/14 04:20:49;;;;;;;26.73;16.55;;;;;;;3.10;99.30;100154.47;5072864;28;20043;-66
2023/02/14 04:23:15;;;;;;;28.02;16.65;;;;;;;2.93;98.46;100108.88;5073173;28;20041;-66
2023/02/14 04:25:41;;;;;;;27.02;16.40;;;;;;;3.18;97.25;100131.88;5038450;28;20036;-66
2023/02/14 04:28:08;;;;;;;25.83;15.85;;;;;;;3.29;96.06;100133.22;5055002;28;20112;-66
2023/02/14 04:30:33;;;;;;;27.02;15.65;;;;;;;3.32;95.42;100130.50;5038129;28;20032;-67
2023/02/14 04:32:58;;;;;;;25.58;13.73;;;;;;;3.44;93.98;100141.13;5055249;28;20058;-66
2023/02/14 04:35:24;;;;;;;27.35;15.00;;;;;;;3.06;94.39;100070.69;5053963;28;20078;-66
2023/02/14 04:37:49;;;;;;;25.60;14.13;;;;;;;3.46;93.18;100136.75;5038184;28;20396;-66
2023/02/14 04:40:16;;;;;;;24.42;14.73;;;;;;;3.30;91.89;100096.31;5072555;28;20396;-66
2023/02/14 04:42:43;;;;;;;25.85;15.93;;;;;;;3.49;91.82;100127.22;5038403;28;20182;-66
2023/02/14 04:45:08;;;;;;;25.95;14.52;;;;;;;3.47;90.68;100107.56;5054436;28;20033;-66
2023/02/14 04:47:34;;;;;;;24.33;14.63;;;;;;;3.56;91.63;100123.50;5054601;28;20077;-66
2023/02/14 04:49:59;;;;;;;27.15;14.77;;;;;;;3.59;92.48;100116.50;5037579;28;20134;-66
2023/02/14 04:52:25;;;;;;;23.63;13.52;;;;;;;3.68;89.59;100110.16;5042950;28;20024;-65
2023/02/14 04:54:50;;;;;;;23.15;14.38;;;;;;;3.64;90.55;100116.34;5074306;28;20044;-66
2023/02/14 04:57:15;;;;;;;24.73;14.93;;;;;;;3.49;91.76;100116.94;5058016;28;20036;-66
2023/02/14 04:59:41;;;;;;;27.58;14.82;;;;;;;3.61;91.20;100126.75;5057600;28;20032;-67
2023/02/14 05:02:07;;;;;;;28.60;14.95;;;;;;;3.52;92.28;100112.50;5074758;28;20430;-66
2023/02/14 05:04:32;;;;;;;25.83;14.77;;;;;;;3.52;91.33;100116.81;5092280;28;20035;-66
2023/02/14 05:06:57;;;;;;;25.25;13.68;;;;;;;3.42;92.71;100119.78;5074180;28;20369;-66
2023/02/14 05:09:23;;;;;;;26.65;15.02;;;;;;;3.27;93.33;100108.38;5074433;28;20119;-66
2023/02/14 05:11:48;;;;;;;26.70;16.60;;;;;;;3.22;92.23;100114.63;5073956;28;20093;-66
2023/02/14 05:14:14;;;;;;;30.58;18.45;;;;;;;3.23;92.35;100118.84;5074147;28;20031;-66
2023/02/14 05:16:39;;;;;;;30.48;19.23;;;;;;;3.11;92.84;100104.75;5073886;28;20249;-66
2023/02/14 05:19:06;;;;;;;32.35;18.25;;;;;;;3.13;93.24;100120.94;5057764;28;20040;-66
2023/02/14 05:21:32;;;;;;;32.65;20.58;;;;;;;2.70;93.31;100058.38;5074361;28;20533;-66
2023/02/14 05:24:01;;;;;;;31.05;18.98;;;;;;;2.95;93.94;100112.22;5074158;28;20460;-66
2023/02/14 05:26:27;;;;;;;25.27;15.75;;;;;;;2.95;94.21;100113.97;5073732;28;20016;-66
2023/02/14 05:28:52;;;;;;;24.60;15.18;;;;;;;2.17;94.40;99981.69;5073804;28;20028;-66
2023/02/14 05:31:18;;;;;;;27.20;15.50;;;;;;;2.99;95.54;100113.75;5073562;28;20081;-66
2023/02/14 05:33:43;;;;;;;25.85;15.10;;;;;;;3.08;97.65;100116.00;5092008;28;20039;-67
2023/02/14 05:36:09;;;;;;;23.27;14.90;;;;;;;2.66;98.25;100056.81;5057064;28;20110;-66
2023/02/14 05:38:34;;;;;;;24.27;14.68;;;;;;;2.72;98.59;100074.59;5073647;28;20067;-66
2023/02/14 05:41:00;;;;;;;26.25;14.80;;;;;;;3.00;98.65;100127.47;5074036;28;20046;-67
2023/02/14 05:43:26;;;;;;;26.70;14.82;;;;;;;2.82;99.10;100099.00;5073565;28;20035;-66
2023/02/14 05:45:53;;;;;;;26.75;15.05;;;;;;;3.07;99.33;100111.75;5073646;28;20031;-66
2023/02/14 05:48:18;;;;;;;27.15;15.68;;;;;;;3.14;98.84;100125.19;5091924;28;20114;-66
2023/02/14 05:50:44;;;;;;;25.17;14.45;;;;;;;2.71;99.26;100061.81;5073315;28;20180;-66
2023/02/14 05:53:10;;;;;;;25.73;14.02;;;;;;;3.00;98.80;100118.03;5072308;28;20444;-66
2023/02/14 05:55:36;;;;;;;30.00;15.80;;;;;;;3.07;98.83;100126.34;5064553;28;20032;-66
2023/02/14 05:58:02;;;;;;;24.35;14.48;;;;;;;3.03;98.09;100138.47;5053535;28;20025;-66
2023/02/14 06:00:27;;;;;;;22.95;13.93;;;;;;;2.77;97.69;100075.22;5069930;28;20028;-66
2023/02/14 06:02:53;;;;;;;26.15;15.02;;;;;;;2.73;97.61;100076.25;5071558;28;20115;-66
2023/02/14 06:05:19;;;;;;;26.60;14.90;;;;;;;2.95;97.63;100155.06;5071259;28;20136;-66
2023/02/14 06:07:49;;;;;;;25.98;15.45;;;;;;;2.88;98.08;100141.63;5070482;28;20028;-66
2023/02/14 06:10:16;;;;;;;25.40;14.68;;;;;;;2.98;97.79;100147.25;5070215;28;20476;-66
2023/02/14 06:12:41;;;;;;;29.63;16.35;;;;;;;2.89;97.55;100140.72;5070131;28;20048;-66
2023/02/14 06:15:07;;;;;;;27.17;16.10;;;;;;;2.87;97.25;100158.78;5053241;28;20036;-67
2023/02/14 06:17:32;;;;;;;32.97;17.77;;;;;;;2.37;98.31;100152.91;5066849;28;20032;-67
2023/02/14 06:19:58;;;;;;;29.75;18.65;;;;;;;2.47;97.63;100159.41;5050812;28;20493;-66
2023/02/14 06:22:23;;;;;;;29.58;17.60;;;;;;;2.47;94.68;100167.94;5066012;28;20032;-67
2023/02/14 06:24:48;;;;;;;30.25;18.30;;;;;;;2.40;94.01;100155.38;5070731;28;20028;-67
2023/02/14 06:27:14;;;;;;;29.98;17.95;;;;;;;2.36;93.39;100170.06;5071924;28;20031;-67
2023/02/14 06:29:39;;;;;;;32.75;18.00;;;;;;;2.25;93.73;100165.31;5065508;28;20345;-67
2023/02/14 06:32:05;;;;;;;30.42;20.00;;;;;;;2.05;94.23;100173.69;5051235;28;20029;-66
2023/02/14 06:34:32;;;;;;;32.40;19.50;;;;;;;2.01;93.62;100177.25;5075814;28;20481;-66
2023/02/14 06:36:57;;;;;;;35.75;20.70;;;;;;;1.88;93.62;100175.97;5071061;28;20028;-66
2023/02/14 06:39:23;;;;;;;33.58;19.33;;;;;;;1.97;94.01;100179.97;5068985;28;20039;-67
2023/02/14 06:41:48;;;;;;;32.95;19.48;;;;;;;1.63;93.12;100112.69;5050335;28;20480;-66
2023/02/14 06:44:14;;;;;;;33.22;17.65;;;;;;;1.75;94.10;100190.09;5051219;28;20025;-66
2023/02/14 06:46:39;;;;;;;33.90;20.05;;;;;;;1.70;93.89;100164.63;5036761;28;20353;-66
2023/02/14 06:49:05;;;;;;;35.75;22.90;;;;;;;1.90;92.72;100187.88;5053204;28;20029;-68
2023/02/14 06:51:30;;;;;;;39.15;25.27;;;;;;;1.94;91.94;100182.66;5036471;28;20029;-67
2023/02/14 06:53:55;;;;;;;41.13;25.23;;;;;;;1.98;92.74;100195.31;5071122;28;20519;-67
2023/02/14 06:56:21;;;;;;;44.78;25.92;;;;;;;1.48;93.03;100133.72;5052834;28;20028;-66
2023/02/14 06:58:46;;;;;;;38.75;21.35;;;;;;;1.64;93.87;100193.88;5054973;28;20388;-68
2023/02/14 07:01:12;;;;;;;33.95;18.38;;;;;;;1.61;94.18;100205.97;5056395;28;20029;-68
2023/02/14 07:03:37;;;;;;;32.00;18.70;;;;;;;1.19;93.78;100140.59;5056824;28;20020;-67
2023/02/14 07:06:02;;;;;;;33.25;19.00;;;;;;;1.25;94.08;100150.66;5056383;28;20035;-68
2023/02/14 07:08:28;;;;;;;32.92;18.73;;;;;;;1.72;93.71;100203.88;5057011;28;20407;-68
2023/02/14 07:10:57;;;;;;;32.90;18.05;;;;;;;1.83;92.72;100214.63;5056210;28;20035;-68
2023/02/14 07:13:23;;;;;;;33.30;18.42;;;;;;;1.82;91.91;100210.38;5040006;28;20036;-67
2023/02/14 07:15:48;;;;;;;34.92;18.58;;;;;;;1.84;91.67;100210.31;5056515;28;20025;-68
2023/02/14 07:18:14;;;;;;;36.60;19.23;;;;;;;0.42;91.49;99991.91;5056175;28;20040;-68
2023/02/14 07:20:39;;;;;;;32.65;18.35;;;;;;;1.72;92.34;100207.28;5039573;28;20381;-68
2023/02/14 07:23:05;;;;;;;35.35;19.20;;;;;;;1.54;92.69;100205.31;5039552;28;20036;-67
2023/02/14 07:25:30;;;;;;;34.05;18.25;;;;;;;1.54;92.95;100213.81;5056371;28;20433;-68
2023/02/14 07:27:55;;;;;;;32.60;17.77;;;;;;;1.62;93.22;100207.63;5056057;28;20036;-68
2023/02/14 07:30:21;;;;;;;32.22;18.10;;;;;;;1.77;92.09;100213.97;5056499;28;20035;-68
2023/02/14 07:32:46;;;;;;;36.97;19.00;;;;;;;1.56;92.95;100221.47;5039487;28;20138;-68
2023/02/14 07:35:12;;;;;;;35.28;19.10;;;;;;;1.52;94.28;100213.03;5055782;28;20035;-68
2023/02/14 07:37:37;;;;;;;31.70;19.05;;;;;;;1.41;94.66;100180.94;5039329;28;20040;-67
2023/02/14 07:40:04;;;;;;;32.67;19.40;;;;;;;1.54;95.11;100224.06;5055950;28;20352;-67
2023/02/14 07:42:29;;;;;;;37.53;18.00;;;;;;;1.22;94.96;100163.56;5055950;28;20082;-67
2023/02/14 07:44:55;;;;;;;32.20;18.75;;;;;;;1.58;95.86;100221.44;5039330;28;20016;-67
2023/02/14 07:47:20;;;;;;;31.95;19.08;;;;;;;1.59;95.03;100223.09;5055988;28;20033;-67
2023/02/14 07:49:45;;;;;;;39.28;19.92;;;;;;;1.57;95.06;100219.72;5055548;28;20077;-68
2023/02/14 07:52:11;;;;;;;35.13;19.90;;;;;;;1.63;94.89;100230.66;5055814;28;20039;-67
2023/02/14 07:54:37;;;;;;;39.15;18.33;;;;;;;1.65;94.39;100231.44;5055562;28;20427;-67
2023/02/14 07:57:03;;;;;;;37.25;18.42;;;;;;;1.71;94.56;100236.34;5055920;28;20024;-65
2023/02/14 07:59:29;;;;;;;33.25;19.13;;;;;;;1.69;93.88;100230.44;5055442;28;20016;-66
2023/02/14 08:01:55;;;;;;;41.05;20.58;;;;;;;1.29;94.20;100180.41;5055521;28;20043;-66
2023/02/14 08:04:24;;;;;;;38.22;20.83;;;;;;;1.27;94.58;100189.06;5073434;28;20028;-66
2023/02/14 08:06:51;;;;;;;37.13;18.98;;;;;;;1.37;94.73;100176.78;5039096;28;20115;-66
2023/02/14 08:09:23;;;;;;;43.25;19.42;;;;;;;1.41;94.79;100175.81;5055254;28;20757;-66
2023/02/14 08:14:36;;;;;;;36.85;19.00;;;;;;;1.70;95.17;100232.13;5057553;28;20048;-66
2023/02/14 08:17:02;;;;;;;34.78;18.65;;;;;;;1.72;94.94;100226.97;5038662;28;20032;-66
2023/02/14 08:19:28;;;;;;;33.80;18.42;;;;;;;1.56;96.72;100218.91;5055026;28;20024;-66
2023/02/14 08:21:54;;;;;;;34.17;19.52;;;;;;;1.67;96.45;100223.69;5038406;28;20032;-66
2023/02/14 08:24:19;;;;;;;33.58;18.67;;;;;;;1.41;96.55;100175.81;5054651;28;20390;-67
2023/02/14 08:26:45;;;;;;;37.08;19.77;;;;;;;1.63;95.68;100207.56;5072759;28;20037;-66
2023/02/14 08:29:10;;;;;;;36.22;19.55;;;;;;;1.45;96.26;100164.56;5038389;28;20028;-66
2023/02/14 08:31:36;;;;;;;32.95;17.90;;;;;;;1.76;96.85;100227.69;5038344;28;20542;-66
2023/02/14 08:34:03;;;;;;;44.15;19.13;;;;;;;1.56;97.57;100189.88;5054950;28;20021;-66
2023/02/14 08:36:29;;;;;;;33.70;18.45;;;;;;;1.88;97.54;100222.16;5038245;28;20032;-66
2023/02/14 08:38:56;;;;;;;37.53;19.48;;;;;;;1.94;96.67;100219.41;5072780;28;20028;-66
2023/02/14 08:41:22;;;;;;;33.35;18.98;;;;;;;1.98;97.07;100220.97;5038637;28;20035;-66
2023/02/14 08:43:47;;;;;;;34.95;18.35;;;;;;;1.71;97.39;100166.28;5054588;28;20028;-66
2023/02/14 08:46:13;;;;;;;33.90;19.70;;;;;;;1.95;98.38;100215.09;5054569;28;20040;-65
2023/02/14 08:48:39;;;;;;;35.15;18.63;;;;;;;2.01;99.77;100222.59;5038076;28;20032;-66
2023/02/14 08:51:06;;;;;;;33.28;18.90;;;;;;;2.10;100.00;100230.84;5037893;28;20383;-66
2023/02/14 08:53:32;;;;;;;33.03;18.92;;;;;;;1.85;100.00;100173.53;5037813;28;20033;-66
2023/02/14 08:56:02;;;;;;;33.45;18.63;;;;;;;2.14;100.00;100217.91;5054577;28;20025;-66
2023/02/14 08:58:28;;;;;;;33.95;18.23;;;;;;;2.07;100.00;100195.00;5054673;28;20021;-67
2023/02/14 09:00:54;;;;;;;28.27;18.08;;;;;;;2.16;100.00;100218.69;5054186;28;20035;-67
2023/02/14 09:03:19;;;;;;;36.28;18.48;;;;;;;2.14;100.00;100199.94;5037850;28;20044;-66
2023/02/14 09:05:45;;;;;;;31.98;17.73;;;;;;;1.83;100.00;100141.97;5054892;28;20469;-66
2023/02/14 09:08:10;;;;;;;29.77;17.83;;;;;;;2.25;100.00;100211.50;5072658;28;20021;-66
2023/02/14 09:10:36;;;;;;;34.22;18.98;;;;;;;2.23;100.00;100197.06;5054639;28;20024;-67
2023/02/14 09:13:01;;;;;;;29.95;17.35;;;;;;;2.07;100.00;100151.38;5037238;28;20041;-66
2023/02/14 09:15:27;;;;;;;32.13;18.00;;;;;;;2.40;100.00;100206.72;5072110;28;20032;-66
2023/02/14 09:17:52;;;;;;;28.83;16.95;;;;;;;2.47;100.00;100210.75;5037488;28;20092;-66
2023/02/14 09:20:18;;;;;;;28.70;16.83;;;;;;;2.47;100.00;100203.88;5053469;28;20025;-67
2023/02/14 09:22:43;;;;;;;31.02;17.50;;;;;;;2.48;100.00;100200.44;5037312;28;20039;-66
2023/02/14 09:25:09;;;;;;;26.73;17.05;;;;;;;2.48;100.00;100205.59;5054292;28;20388;-66
2023/02/14 09:27:34;;;;;;;32.80;17.42;;;;;;;2.42;100.00;100195.50;5053787;28;20032;-66
2023/02/14 09:30:00;;;;;;;33.25;17.00;;;;;;;2.54;100.00;100207.09;5037071;28;20050;-66
2023/02/14 09:32:26;;;;;;;30.25;17.35;;;;;;;2.38;100.00;100183.69;5054273;28;20029;-66
2023/02/14 09:40:19;;;;;;;31.25;17.98;;;;;;;2.62;100.00;100196.53;5076574;28;20059;-66
2023/02/14 09:43:03;;;;;;;31.88;17.92;;;;;;;2.35;100.00;100140.13;5057177;28;20484;-66
2023/02/14 09:45:30;;;;;;;30.38;16.90;;;;;;;2.78;100.00;100194.25;5073619;28;20032;-66
2023/02/14 09:48:19;;;;;;;30.85;18.33;;;;;;;2.75;100.00;100189.22;5073936;28;20046;-66
2023/02/14 09:50:48;;;;;;;31.55;18.55;;;;;;;2.32;100.00;100122.28;5053721;28;20115;-66
2023/02/14 09:53:14;;;;;;;34.27;18.57;;;;;;;2.73;100.00;100191.00;5053715;28;20043;-66
2023/02/14 09:55:50;;;;;;;34.55;18.10;;;;;;;2.77;100.00;100190.00;5053333;28;20774;-66
2023/02/14 09:58:22;;;;;;;30.65;17.80;;;;;;;2.79;100.00;100189.06;5053380;28;20322;-66
2023/02/14 10:01:19;;;;;;;28.90;16.45;;;;;;;2.93;100.00;100193.66;5053673;28;20021;-66
2023/02/14 10:04:04;;;;;;;29.25;16.02;;;;;;;2.98;100.00;100193.50;5025908;28;20044;-67
2023/02/14 10:06:44;;;;;;;25.75;15.68;;;;;;;2.74;100.00;100124.16;5053414;28;20032;-66
2023/02/14 10:09:23;;;;;;;27.48;15.35;;;;;;;2.92;100.00;100127.78;5036767;28;20135;-66
2023/02/14 10:11:49;;;;;;;24.27;13.80;;;;;;;3.07;95.70;100118.63;5071312;28;20056;-66
2023/02/14 10:14:24;;;;;;;26.65;14.13;;;;;;;3.55;92.21;100160.44;5053614;28;20928;-66
2023/02/14 10:16:55;;;;;;;24.85;14.35;;;;;;;3.78;89.75;100173.19;5036908;28;20020;-66
2023/02/14 10:19:40;;;;;;;26.15;14.52;;;;;;;4.01;86.38;100173.97;5053268;28;20028;-67
2023/02/14 10:22:21;;;;;;;25.08;12.68;;;;;;;4.37;80.86;100160.41;5053223;28;20022;-66
2023/02/14 10:25:19;;;;;;;24.60;12.68;;;;;;;4.68;80.73;100159.88;5036932;28;20152;-66
2023/02/14 10:27:45;;;;;;;22.70;12.43;;;;;;;5.01;76.41;100154.09;5052462;28;20029;-66
2023/02/14 10:30:17;;;;;;;24.05;12.82;;;;;;;5.08;76.39;100142.59;5036638;28;20082;-66
2023/02/14 10:32:42;;;;;;;24.48;12.55;;;;;;;4.69;75.45;100083.41;5037285;28;20063;-67
2023/02/14 10:35:21;;;;;;;24.17;12.55;;;;;;;5.17;75.54;100142.16;5057069;28;20472;-67
2023/02/14 10:37:53;;;;;;;24.42;12.05;;;;;;;5.31;73.63;100138.94;5057233;28;20024;-67
2023/02/14 10:40:37;;;;;;;22.75;11.88;;;;;;;5.25;69.85;100081.63;5057000;28;20039;-67
2023/02/14 10:43:14;;;;;;;25.63;12.23;;;;;;;5.65;69.60;100129.53;5074880;28;20029;-67
2023/02/14 10:46:02;;;;;;;20.42;11.32;;;;;;;5.99;65.95;100129.59;5056980;28;20033;-67
2023/02/14 10:48:36;;;;;;;22.58;10.95;;;;;;;6.17;64.87;100113.19;5045972;28;20086;-67
2023/02/14 10:51:10;;;;;;;19.05;10.45;;;;;;;6.38;65.28;100118.94;5056600;28;20028;-67
2023/02/14 10:53:57;;;;;;;20.40;9.57;;;;;;;6.51;62.76;100116.53;5056901;28;20056;-66
2023/02/14 10:56:33;;;;;;;20.40;10.30;;;;;;;6.47;65.51;100096.97;5074873;28;20051;-66
2023/02/14 10:59:20;;;;;;;21.40;10.35;;;;;;;6.68;65.75;100110.47;5040290;28;20032;-66
2023/02/14 11:01:46;;;;;;;17.80;10.20;;;;;;;6.73;65.79;100106.75;5084632;28;20035;-66
2023/02/14 11:04:13;;;;;;;22.83;11.23;;;;;;;6.78;66.39;100110.81;5056772;28;20040;-66
2023/02/14 11:06:38;;;;;;;21.95;11.40;;;;;;;6.78;64.31;100095.31;5040110;28;20040;-66
2023/02/14 11:09:04;;;;;;;19.75;10.65;;;;;;;6.79;64.09;100099.53;5074439;28;20074;-66
2023/02/14 11:11:36;;;;;;;21.40;10.43;;;;;;;6.78;64.60;100098.72;5056462;28;20063;-66
2023/02/14 11:14:20;;;;;;;21.20;11.25;;;;;;;6.84;63.98;100094.97;5039967;28;20123;-66
2023/02/14 11:16:50;;;;;;;20.63;10.65;;;;;;;6.89;64.05;100087.78;5088397;28;20035;-67
2023/02/14 11:19:27;;;;;;;20.05;10.70;;;;;;;7.06;63.90;100073.91;5076808;28;20128;-67
2023/02/14 11:21:54;;;;;;;21.98;11.65;;;;;;;7.21;64.03;100072.19;5059618;28;20059;-67
2023/02/14 11:24:32;;;;;;;22.38;11.25;;;;;;;7.21;63.49;100070.47;5076229;28;20016;-67
2023/02/14 11:27:03;;;;;;;22.40;11.88;;;;;;;7.21;63.75;100060.13;5094420;28;20038;-67
2023/02/14 11:29:51;;;;;;;21.50;11.50;;;;;;;7.37;63.32;100062.63;5076195;28;20107;-67
2023/02/14 11:32:23;;;;;;;20.20;10.40;;;;;;;7.59;62.46;100054.44;5075872;28;20047;-67
2023/02/14 11:35:07;;;;;;;18.08;9.50;;;;;;;7.61;60.42;100054.34;5059459;28;20107;-67
2023/02/14 11:37:48;;;;;;;21.23;12.02;;;;;;;7.34;61.98;100042.13;5076207;28;20024;-67
2023/02/14 11:40:37;;;;;;;21.60;10.23;;;;;;;7.65;61.88;100042.94;5075925;28;20066;-66
2023/02/14 11:43:12;;;;;;;21.42;10.73;;;;;;;7.94;59.76;100036.00;5075729;28;20377;-66
2023/02/14 11:45:42;;;;;;;20.77;10.88;;;;;;;8.32;57.12;100027.59;5093650;28;20085;-67
2023/02/14 11:48:17;;;;;;;19.52;11.10;;;;;;;8.42;58.17;100020.97;5075584;28;20027;-66